createdAt,value
2022-09-09T00:01:53.653Z,16.70
2022-09-09T00:04:28.559Z,16.70
2022-09-09T00:07:05.725Z,16.70
2022-09-09T00:09:38.970Z,16.60
2022-09-09T00:12:12.849Z,16.60
2022-09-09T00:14:49.223Z,16.60
2022-09-09T00:17:24.526Z,16.60
2022-09-09T00:20:01.944Z,16.60
2022-09-09T00:22:32.954Z,16.60
2022-09-09T00:25:11.666Z,16.50
2022-09-09T00:27:44.226Z,16.50
2022-09-09T00:30:20.469Z,16.60
2022-09-09T00:32:49.100Z,16.50
2022-09-09T00:35:23.328Z,16.50
2022-09-09T00:37:55.085Z,16.50
2022-09-09T00:40:33.536Z,16.50
2022-09-09T00:43:18.813Z,16.50
2022-09-09T00:46:32.289Z,16.50
2022-09-09T00:49:07.333Z,16.40
2022-09-09T00:51:45.540Z,16.40
2022-09-09T00:54:31.583Z,16.40
2022-09-09T00:57:09.837Z,16.40
2022-09-09T00:59:47.965Z,16.40
2022-09-09T01:02:23.547Z,16.40
2022-09-09T01:04:51.383Z,16.40
2022-09-09T01:07:20.346Z,16.30
2022-09-09T01:09:56.369Z,16.30
2022-09-09T01:12:44.550Z,16.30
2022-09-09T01:15:14.346Z,16.30
2022-09-09T01:17:53.803Z,16.30
2022-09-09T01:20:26.012Z,16.30
2022-09-09T01:23:09.639Z,16.30
2022-09-09T01:26:11.045Z,16.20
2022-09-09T01:28:40.820Z,16.20
2022-09-09T01:31:11.313Z,16.20
2022-09-09T01:33:39.408Z,16.30
2022-09-09T01:36:11.225Z,16.20
2022-09-09T01:38:39.152Z,16.20
2022-09-09T01:41:08.454Z,16.20
2022-09-09T01:43:36.260Z,16.20
2022-09-09T01:46:04.289Z,16.10
2022-09-09T01:48:32.996Z,16.00
2022-09-09T01:51:00.813Z,16.00
2022-09-09T01:53:28.761Z,16.10
2022-09-09T01:56:16.850Z,16.00
2022-09-09T01:58:56.520Z,16.00
2022-09-09T02:01:44.109Z,16.00
2022-09-09T02:04:23.195Z,16.00
2022-09-09T02:06:55.521Z,16.00
2022-09-09T02:09:26.204Z,16.00
2022-09-09T02:12:02.109Z,15.90
2022-09-09T02:14:35.458Z,15.90
2022-09-09T02:17:08.645Z,15.80
2022-09-09T02:19:41.084Z,15.80
2022-09-09T02:22:08.853Z,15.80
2022-09-09T02:24:39.412Z,15.80
2022-09-09T02:27:10.597Z,15.80
2022-09-09T02:29:41.629Z,15.70
2022-09-09T02:32:15.280Z,15.80
2022-09-09T02:34:47.206Z,15.80
2022-09-09T02:37:16.970Z,15.70
2022-09-09T02:39:45.223Z,15.70
2022-09-09T02:42:15.881Z,15.70
2022-09-09T02:44:44.339Z,15.70
2022-09-09T02:47:29.079Z,15.70
2022-09-09T02:50:06.149Z,15.60
2022-09-09T02:52:41.019Z,15.60
2022-09-09T02:55:16.864Z,15.60
2022-09-09T02:57:49.135Z,15.60
2022-09-09T03:00:17.099Z,15.60
2022-09-09T03:02:46.683Z,15.60
2022-09-09T03:05:15.001Z,15.50
2022-09-09T03:07:42.793Z,15.50
2022-09-09T03:10:11.582Z,15.50
2022-09-09T03:12:39.725Z,15.50
2022-09-09T03:15:10.770Z,15.50
2022-09-09T03:17:38.753Z,15.50
2022-09-09T03:20:08.201Z,15.50
2022-09-09T03:22:36.444Z,15.50
2022-09-09T03:25:04.535Z,15.50
2022-09-09T03:27:32.475Z,15.50
2022-09-09T03:30:04.610Z,15.50
2022-09-09T03:32:33.757Z,15.50
2022-09-09T03:35:01.508Z,15.60
2022-09-09T03:37:29.240Z,15.70
2022-09-09T03:39:57.079Z,15.70
2022-09-09T03:42:24.917Z,15.70
2022-09-09T03:44:52.677Z,15.60
2022-09-09T03:47:22.554Z,15.60
2022-09-09T03:49:51.627Z,15.60
2022-09-09T03:52:23.485Z,15.50
2022-09-09T03:54:52.042Z,15.50
2022-09-09T03:57:19.833Z,15.60
2022-09-09T03:59:47.680Z,15.50
2022-09-09T04:02:16.425Z,15.60
2022-09-09T04:04:44.190Z,15.70
2022-09-09T04:07:13.738Z,15.70
2022-09-09T04:09:41.444Z,15.60
2022-09-09T04:12:09.371Z,15.60
2022-09-09T04:14:37.194Z,15.50
2022-09-09T04:17:07.093Z,15.60
2022-09-09T04:19:35.226Z,15.70
2022-09-09T04:22:02.925Z,15.60
2022-09-09T04:24:32.079Z,15.50
2022-09-09T04:26:59.858Z,15.40
2022-09-09T04:29:27.617Z,15.70
2022-09-09T04:31:55.514Z,15.70
2022-09-09T04:34:23.322Z,15.70
2022-09-09T04:36:52.779Z,15.60
2022-09-09T04:39:20.604Z,15.60
2022-09-09T04:41:50.285Z,15.60
2022-09-09T04:44:18.065Z,15.60
2022-09-09T04:46:46.001Z,15.50
2022-09-09T04:49:15.337Z,15.40
2022-09-09T04:51:43.854Z,15.30
2022-09-09T04:54:12.577Z,15.40
2022-09-09T04:56:40.768Z,15.40
2022-09-09T04:59:10.782Z,15.30
2022-09-09T05:01:39.239Z,15.30
2022-09-09T05:04:07.008Z,15.30
2022-09-09T05:06:35.019Z,15.30
2022-09-09T05:09:02.780Z,15.20
2022-09-09T05:11:33.179Z,15.20
2022-09-09T05:14:01.004Z,15.20
2022-09-09T05:16:30.633Z,15.30
2022-09-09T05:18:59.914Z,15.20
2022-09-09T05:21:28.906Z,15.20
2022-09-09T05:23:56.829Z,15.10
2022-09-09T05:26:25.279Z,15.10
2022-09-09T05:28:53.017Z,15.20
2022-09-09T05:31:21.485Z,15.20
2022-09-09T05:33:51.133Z,15.20
2022-09-09T05:36:20.948Z,15.30
2022-09-09T05:38:50.145Z,15.20
2022-09-09T05:41:18.980Z,15.30
2022-09-09T05:43:47.870Z,15.30
2022-09-09T05:46:19.549Z,15.30
2022-09-09T05:48:51.572Z,15.30
2022-09-09T05:51:24.814Z,15.30
2022-09-09T05:53:53.297Z,15.30
2022-09-09T05:56:23.336Z,15.30
2022-09-09T05:58:52.624Z,15.20
2022-09-09T06:01:22.072Z,15.20
2022-09-09T06:03:53.521Z,15.30
2022-09-09T06:06:22.695Z,15.20
2022-09-09T06:08:52.773Z,15.20
2022-09-09T06:11:22.737Z,15.30
2022-09-09T06:13:54.326Z,15.30
2022-09-09T06:16:24.628Z,15.30
2022-09-09T06:18:55.214Z,15.30
2022-09-09T06:21:24.502Z,15.40
2022-09-09T06:23:56.741Z,15.30
2022-09-09T06:26:29.630Z,15.20
2022-09-09T06:28:58.843Z,15.30
2022-09-09T06:31:30.992Z,15.40
2022-09-09T06:34:01.345Z,15.50
2022-09-09T06:36:30.552Z,15.50
2022-09-09T06:38:58.605Z,15.60
2022-09-09T06:41:28.280Z,15.60
2022-09-09T06:43:56.536Z,15.60
2022-09-09T06:46:28.835Z,15.70
2022-09-09T06:48:59.736Z,15.60
2022-09-09T06:51:30.347Z,15.70
2022-09-09T06:53:59.464Z,15.70
2022-09-09T06:56:29.043Z,15.70
2022-09-09T06:58:59.270Z,15.70
2022-09-09T07:01:31.193Z,15.70
2022-09-09T07:04:00.720Z,15.70
2022-09-09T07:06:31.992Z,15.70
2022-09-09T07:09:01.634Z,15.70
2022-09-09T07:11:30.985Z,15.60
2022-09-09T07:14:00.765Z,15.40
2022-09-09T07:16:30.498Z,15.40
2022-09-09T07:18:59.189Z,15.50
2022-09-09T07:21:29.891Z,15.50
2022-09-09T07:23:58.121Z,15.30
2022-09-09T07:26:28.130Z,15.30
2022-09-09T07:28:57.038Z,15.30
2022-09-09T07:31:27.318Z,15.40
2022-09-09T07:33:55.881Z,15.30
2022-09-09T07:36:32.498Z,15.20
2022-09-09T07:39:04.189Z,15.30
2022-09-09T07:41:35.922Z,15.40
2022-09-09T07:44:07.763Z,15.50
2022-09-09T07:46:37.162Z,15.50
2022-09-09T07:49:05.394Z,15.40
2022-09-09T07:51:35.467Z,15.40
2022-09-09T07:54:06.884Z,15.40
2022-09-09T07:56:36.376Z,15.40
2022-09-09T07:59:05.217Z,15.50
2022-09-09T08:01:35.164Z,15.50
2022-09-09T08:04:05.006Z,15.50
2022-09-09T08:06:35.303Z,15.60
2022-09-09T08:09:05.183Z,15.80
2022-09-09T08:11:38.212Z,15.80
2022-09-09T08:14:08.262Z,15.80
2022-09-09T08:16:38.319Z,15.90
2022-09-09T08:19:06.518Z,15.80
2022-09-09T08:21:35.895Z,15.80
2022-09-09T08:24:06.117Z,15.60
2022-09-09T08:26:36.853Z,15.70
2022-09-09T08:29:07.477Z,15.70
2022-09-09T08:31:38.050Z,15.70
2022-09-09T08:34:07.242Z,15.70
2022-09-09T08:36:37.554Z,15.70
2022-09-09T08:39:08.190Z,15.70
2022-09-09T08:42:24.023Z,15.70
2022-09-09T08:45:26.412Z,15.80
2022-09-09T08:48:13.490Z,15.80
2022-09-09T08:50:42.129Z,15.80
2022-09-09T08:53:17.326Z,15.90
2022-09-09T08:55:49.408Z,15.90
2022-09-09T08:58:19.527Z,15.90
2022-09-09T09:01:13.708Z,16.10
2022-09-09T09:03:51.453Z,16.10
2022-09-09T09:06:37.068Z,16.20
2022-09-09T09:09:10.351Z,16.30
2022-09-09T09:11:42.791Z,16.30
2022-09-09T09:14:18.303Z,16.40
2022-09-09T09:16:54.590Z,16.50
2022-09-09T09:19:23.997Z,16.60
2022-09-09T09:21:56.966Z,16.80
2022-09-09T09:24:33.347Z,16.60
2022-09-09T09:27:10.620Z,16.70
2022-09-09T09:29:58.012Z,16.80
2022-09-09T09:32:32.492Z,16.90
2022-09-09T09:35:02.005Z,17.00
2022-09-09T09:37:33.344Z,17.00
2022-09-09T09:40:11.421Z,17.00
2022-09-09T09:42:52.141Z,17.00
2022-09-09T09:45:29.966Z,17.00
2022-09-09T09:48:07.307Z,17.00
2022-09-09T09:50:36.132Z,17.10
2022-09-09T09:53:06.384Z,17.10
2022-09-09T09:55:37.907Z,17.10
2022-09-09T09:58:08.873Z,17.00
2022-09-09T10:00:36.939Z,17.00
2022-09-09T10:03:21.764Z,17.00
2022-09-09T10:05:49.588Z,17.00
2022-09-09T10:08:20.011Z,17.00
2022-09-09T10:10:57.404Z,17.00
2022-09-09T10:13:33.237Z,17.00
2022-09-09T10:16:21.820Z,16.90
2022-09-09T10:19:00.900Z,17.00
2022-09-09T10:21:50.541Z,17.10
2022-09-09T10:24:37.347Z,17.10
2022-09-09T10:27:13.643Z,17.20
2022-09-09T10:30:09.658Z,17.20
2022-09-09T10:32:52.057Z,17.30
2022-09-09T10:35:40.458Z,17.30
2022-09-09T10:38:23.798Z,17.40
2022-09-09T10:41:11.600Z,17.40
2022-09-09T10:43:58.480Z,17.50
2022-09-09T10:46:39.536Z,17.60
2022-09-09T10:49:22.765Z,17.60
2022-09-09T10:51:59.917Z,17.70
2022-09-09T10:54:42.875Z,17.80
2022-09-09T10:57:17.516Z,17.90
2022-09-09T10:59:50.545Z,17.90
2022-09-09T11:02:28.610Z,18.00
2022-09-09T11:05:01.421Z,18.00
2022-09-09T11:07:36.872Z,18.00
2022-09-09T11:10:09.682Z,18.00
2022-09-09T11:12:41.426Z,18.20
2022-09-09T11:15:18.905Z,18.30
2022-09-09T11:17:51.447Z,18.30
2022-09-09T11:20:19.295Z,18.30
2022-09-09T11:22:53.915Z,18.40
2022-09-09T11:25:25.182Z,18.60
2022-09-09T11:28:22.020Z,18.70
2022-09-09T11:31:04.266Z,18.60
2022-09-09T11:33:50.126Z,18.50
2022-09-09T11:36:45.160Z,18.50
2022-09-09T11:39:39.964Z,18.50
2022-09-09T11:42:08.995Z,18.80
2022-09-09T11:47:06.844Z,18.90
2022-09-09T11:49:45.689Z,18.90
2022-09-09T11:52:26.453Z,18.90
2022-09-09T11:54:56.789Z,18.80
2022-09-09T11:57:29.423Z,18.70
2022-09-09T11:59:57.494Z,18.60
2022-09-09T12:02:27.452Z,18.70
2022-09-09T12:05:02.752Z,18.80
2022-09-09T12:07:40.440Z,18.90
2022-09-09T12:10:24.830Z,19.10
2022-09-09T12:12:52.786Z,19.20
2022-09-09T12:15:29.940Z,18.90
2022-09-09T12:18:03.134Z,18.80
2022-09-09T12:20:37.328Z,18.60
2022-09-09T12:23:34.289Z,18.50
2022-09-09T12:26:23.268Z,18.40
2022-09-09T12:29:00.635Z,18.40
2022-09-09T12:31:33.035Z,18.50
2022-09-09T12:34:12.158Z,18.70
2022-09-09T12:36:42.869Z,18.90
2022-09-09T12:39:20.895Z,19.00
2022-09-09T12:41:58.298Z,19.20
2022-09-09T12:44:28.915Z,19.20
2022-09-09T12:46:58.226Z,19.20
2022-09-09T12:49:31.944Z,19.20
2022-09-09T12:52:02.669Z,19.20
2022-09-09T12:54:30.812Z,19.20
2022-09-09T12:56:59.656Z,19.10
2022-09-09T12:59:36.367Z,19.00
2022-09-09T13:02:04.272Z,18.90
2022-09-09T13:04:32.226Z,19.00
2022-09-09T13:07:10.977Z,19.10
2022-09-09T13:09:38.965Z,19.00
2022-09-09T13:12:08.215Z,19.00
2022-09-09T13:14:39.138Z,19.10
2022-09-09T13:17:08.493Z,19.10
2022-09-09T13:19:39.862Z,19.00
2022-09-09T13:22:15.985Z,19.00
2022-09-09T13:24:44.831Z,19.30
2022-09-09T13:27:29.741Z,19.20
2022-09-09T13:29:58.466Z,19.30
2022-09-09T13:32:27.866Z,19.40
2022-09-09T13:34:57.038Z,19.40
2022-09-09T13:37:34.165Z,19.30
2022-09-09T13:40:03.271Z,19.20
2022-09-09T13:42:33.390Z,19.30
2022-09-09T13:45:01.934Z,19.40
2022-09-09T13:47:33.680Z,19.40
2022-09-09T13:50:19.839Z,19.60
2022-09-09T13:52:50.034Z,19.50
2022-09-09T13:55:17.802Z,19.50
2022-09-09T13:57:53.538Z,19.40
2022-09-09T14:00:21.656Z,19.30
2022-09-09T14:02:49.526Z,19.20
2022-09-09T14:05:18.262Z,19.10
2022-09-09T14:07:52.502Z,19.10
2022-09-09T14:10:21.763Z,19.00
2022-09-09T14:12:49.613Z,18.90
2022-09-09T14:15:17.593Z,18.90
2022-09-09T14:17:45.332Z,18.90
2022-09-09T14:20:16.158Z,18.90
2022-09-09T14:22:44.994Z,18.90
2022-09-09T14:25:15.124Z,18.90
2022-09-09T14:27:44.211Z,18.90
2022-09-09T14:30:13.084Z,18.90
2022-09-09T14:32:40.801Z,18.70
2022-09-09T14:35:09.415Z,18.80
2022-09-09T14:37:37.199Z,18.80
2022-09-09T14:40:05.445Z,18.80
2022-09-09T14:42:34.593Z,18.90
2022-09-09T14:45:02.364Z,18.90
2022-09-09T14:47:31.133Z,18.80
2022-09-09T14:49:58.981Z,18.80
2022-09-09T14:52:27.077Z,18.80
2022-09-09T14:54:54.782Z,18.90
2022-09-09T14:57:22.591Z,18.90
2022-09-09T14:59:51.961Z,18.90
2022-09-09T15:02:19.739Z,18.80
2022-09-09T15:04:47.858Z,18.80
2022-09-09T15:07:15.618Z,18.80
2022-09-09T15:09:43.502Z,18.80
2022-09-09T15:12:11.388Z,18.80
2022-09-09T15:14:39.295Z,18.90
2022-09-09T15:17:08.462Z,18.90
2022-09-09T15:19:37.519Z,18.90
2022-09-09T15:22:06.376Z,19.10
2022-09-09T15:24:34.486Z,19.10
2022-09-09T15:27:02.789Z,19.20
2022-09-09T15:29:30.676Z,19.20
2022-09-09T15:31:58.441Z,19.20
2022-09-09T15:34:27.569Z,19.20
2022-09-09T15:36:56.248Z,19.30
2022-09-09T15:39:24.068Z,19.20
2022-09-09T15:41:52.205Z,19.20
2022-09-09T15:44:20.772Z,19.20
2022-09-09T15:46:51.689Z,19.20
2022-09-09T15:49:22.855Z,19.20
2022-09-09T15:51:54.208Z,19.20
2022-09-09T15:54:24.801Z,19.10
2022-09-09T15:56:55.845Z,19.10
2022-09-09T15:59:23.894Z,19.00
2022-09-09T16:01:52.853Z,18.90
2022-09-09T16:04:24.197Z,18.90
2022-09-09T16:06:54.325Z,18.80
2022-09-09T16:09:22.392Z,18.80
2022-09-09T16:11:50.165Z,18.70
2022-09-09T16:14:18.657Z,18.70
2022-09-09T16:16:46.392Z,18.70
2022-09-09T16:19:15.736Z,18.70
2022-09-09T16:21:45.655Z,18.70
2022-09-09T16:24:17.803Z,18.80
2022-09-09T16:26:47.885Z,18.80
2022-09-09T16:29:17.717Z,18.80
2022-09-09T16:31:46.057Z,18.80
2022-09-09T16:34:13.886Z,18.80
2022-09-09T16:36:43.324Z,18.80
2022-09-09T16:39:12.891Z,18.70
2022-09-09T16:41:44.706Z,18.60
2022-09-09T16:44:14.133Z,18.60
2022-09-09T16:46:44.661Z,18.50
2022-09-09T16:49:15.615Z,18.50
2022-09-09T16:51:45.352Z,18.40
2022-09-09T16:54:14.693Z,18.40
2022-09-09T16:56:45.584Z,18.50
2022-09-09T16:59:15.662Z,18.40
2022-09-09T17:01:45.245Z,18.40
2022-09-09T17:04:16.296Z,18.30
2022-09-09T17:06:47.366Z,18.30
2022-09-09T17:09:15.161Z,18.20
2022-09-09T17:11:44.482Z,18.20
2022-09-09T17:14:15.822Z,18.20
2022-09-09T17:16:43.666Z,18.10
2022-09-09T17:19:12.137Z,18.10
2022-09-09T17:21:54.598Z,18.10
2022-09-09T17:24:30.408Z,18.10
2022-09-09T17:26:59.932Z,18.00
2022-09-09T17:29:27.723Z,18.00
2022-09-09T17:31:55.905Z,18.00
2022-09-09T17:34:23.695Z,18.00
2022-09-09T17:36:51.428Z,17.90
2022-09-09T17:39:19.163Z,17.90
2022-09-09T17:41:47.312Z,17.90
2022-09-09T17:44:16.717Z,17.80
2022-09-09T17:46:46.183Z,17.80
2022-09-09T17:49:18.177Z,17.80
2022-09-09T17:51:46.797Z,17.80
2022-09-09T17:54:18.224Z,17.80
2022-09-09T17:56:47.784Z,17.70
2022-09-09T17:59:18.458Z,17.70
2022-09-09T18:01:49.435Z,17.70
2022-09-09T18:04:18.259Z,17.60
2022-09-09T18:06:48.647Z,17.60
2022-09-09T18:09:18.215Z,17.50
2022-09-09T18:11:47.913Z,17.50
2022-09-09T18:14:18.693Z,17.40
2022-09-09T18:16:47.098Z,17.20
2022-09-09T18:19:16.778Z,17.30
2022-09-09T18:21:45.553Z,17.40
2022-09-09T18:24:15.023Z,17.40
2022-09-09T18:26:43.161Z,17.40
2022-09-09T18:29:14.501Z,17.40
2022-09-09T18:31:44.084Z,17.30
2022-09-09T18:34:13.708Z,17.30
2022-09-09T18:36:44.287Z,17.30
2022-09-09T18:39:13.269Z,17.20
2022-09-09T18:41:42.438Z,17.20
2022-09-09T18:44:13.523Z,17.20
2022-09-09T18:46:43.445Z,17.10
2022-09-09T18:49:12.392Z,17.10
2022-09-09T18:51:42.637Z,17.10
2022-09-09T18:54:14.498Z,17.10
2022-09-09T18:56:42.339Z,17.10
2022-09-09T18:59:13.086Z,17.10
2022-09-09T19:01:44.412Z,17.10
2022-09-09T19:04:12.480Z,17.10
2022-09-09T19:06:42.736Z,17.00
2022-09-09T19:09:12.287Z,16.70
2022-09-09T19:11:40.559Z,16.70
2022-09-09T19:14:10.457Z,16.70
2022-09-09T19:16:40.413Z,16.90
2022-09-09T19:19:13.291Z,17.00
2022-09-09T19:21:42.417Z,16.90
2022-09-09T19:24:13.478Z,16.80
2022-09-09T19:26:43.893Z,16.40
2022-09-09T19:29:15.075Z,16.60
2022-09-09T19:31:53.573Z,16.60
2022-09-09T19:34:31.262Z,16.60
2022-09-09T19:37:00.078Z,16.50
2022-09-09T19:39:27.819Z,16.50
2022-09-09T19:41:55.614Z,16.60
2022-09-09T19:44:23.519Z,16.60
2022-09-09T19:46:51.261Z,16.50
2022-09-09T19:49:19.029Z,16.50
2022-09-09T19:51:48.155Z,16.40
2022-09-09T19:54:16.041Z,16.40
2022-09-09T19:56:44.653Z,16.40
2022-09-09T19:59:15.658Z,16.40
2022-09-09T20:01:45.419Z,16.50
2022-09-09T20:04:14.786Z,16.40
2022-09-09T20:06:44.860Z,16.30
2022-09-09T20:09:15.448Z,16.30
2022-09-09T20:11:44.330Z,16.30
2022-09-09T20:14:12.699Z,16.20
2022-09-09T20:16:41.073Z,16.20
2022-09-09T20:19:12.240Z,16.20
2022-09-09T20:21:47.240Z,16.20
2022-09-09T20:24:18.514Z,16.10
2022-09-09T20:26:48.145Z,16.10
2022-09-09T20:29:18.497Z,16.10
2022-09-09T20:31:46.990Z,16.10
2022-09-09T20:34:16.717Z,16.10
2022-09-09T20:36:44.751Z,16.00
2022-09-09T20:39:15.813Z,16.00
2022-09-09T20:41:46.275Z,16.00
2022-09-09T20:44:16.422Z,16.00
2022-09-09T20:46:47.968Z,16.00
2022-09-09T20:49:17.535Z,15.90
2022-09-09T20:51:45.973Z,15.90
2022-09-09T20:54:15.749Z,15.90
2022-09-09T20:56:46.644Z,15.90
2022-09-09T20:59:16.364Z,15.90
2022-09-09T21:01:46.959Z,15.90
2022-09-09T21:04:16.032Z,16.00
2022-09-09T21:06:44.023Z,16.10
2022-09-09T21:09:11.963Z,16.00
2022-09-09T21:11:39.742Z,16.00
2022-09-09T21:14:09.669Z,16.00
2022-09-09T21:16:37.948Z,16.00
2022-09-09T21:19:06.689Z,15.90
2022-09-09T21:21:34.683Z,16.00
2022-09-09T21:24:02.736Z,16.00
2022-09-09T21:26:30.444Z,15.90
2022-09-09T21:28:58.271Z,16.00
2022-09-09T21:31:28.528Z,16.00
2022-09-09T21:33:56.936Z,16.00
2022-09-09T21:36:25.361Z,15.90
2022-09-09T21:38:53.176Z,15.90
2022-09-09T21:41:21.457Z,15.90
2022-09-09T21:43:53.940Z,16.00
2022-09-09T21:46:23.098Z,15.90
2022-09-09T21:48:52.544Z,15.90
2022-09-09T21:51:20.375Z,15.90
2022-09-09T21:53:48.191Z,15.90
2022-09-09T21:56:18.950Z,15.90
2022-09-09T21:58:47.177Z,15.80
2022-09-09T22:01:16.845Z,15.80
2022-09-09T22:03:45.408Z,15.90
2022-09-09T22:06:16.114Z,15.80
2022-09-09T22:08:43.881Z,15.70
2022-09-09T22:11:14.893Z,15.80
2022-09-09T22:13:44.650Z,15.80
2022-09-09T22:16:14.179Z,15.80
2022-09-09T22:18:42.388Z,15.70
2022-09-09T22:21:11.904Z,15.80
2022-09-09T22:23:41.088Z,15.80
2022-09-09T22:26:10.090Z,15.80
2022-09-09T22:28:38.626Z,15.70
2022-09-09T22:31:07.265Z,15.70
2022-09-09T22:33:35.872Z,15.70
2022-09-09T22:36:04.706Z,15.70
2022-09-09T22:38:34.647Z,15.70
2022-09-09T22:41:04.185Z,15.60
2022-09-09T22:43:33.887Z,15.60
2022-09-09T22:46:02.257Z,15.60
2022-09-09T22:48:33.891Z,15.50
2022-09-09T22:51:04.308Z,15.60
2022-09-09T22:53:32.985Z,15.50
2022-09-09T22:56:04.232Z,15.60
2022-09-09T23:01:16.306Z,15.50
2022-09-09T23:03:45.883Z,15.40
2022-09-09T23:06:20.101Z,15.40
2022-09-09T23:08:48.938Z,15.40
2022-09-09T23:11:18.709Z,15.40
2022-09-09T23:13:51.877Z,15.40
2022-09-09T23:16:22.155Z,15.30
2022-09-09T23:18:50.313Z,15.30
2022-09-09T23:21:18.154Z,15.30
2022-09-09T23:23:46.502Z,15.30
2022-09-09T23:26:19.112Z,15.30
2022-09-09T23:28:49.869Z,15.30
2022-09-09T23:31:20.500Z,15.30
2022-09-09T23:33:48.829Z,15.30
2022-09-09T23:36:19.106Z,15.20
2022-09-09T23:38:47.376Z,15.20
2022-09-09T23:41:20.907Z,15.20
2022-09-09T23:43:50.623Z,15.20
2022-09-09T23:46:20.901Z,15.20
2022-09-09T23:48:50.525Z,15.20
2022-09-09T23:51:19.646Z,15.20
2022-09-09T23:53:51.077Z,15.10
2022-09-09T23:56:20.274Z,15.10
2022-09-09T23:58:50.215Z,15.10
